Szeged, Hungary

11:06 PM CET on February 07, 2016 (GMT +0100)
Szeged | | Change Station
CLOSE
Current Station
Personal Weather Station
Location: Szeged, CSONGRaD
Elevation: 262 ft
Nearby Weather Stations

Elev 262 ft 46.24 °N, 20.11 °E | Updated 10 seconds ago

Clear
Clear
36.3 °F
Feels Like 15 °F
N
114.0
Wind Variable Wind from North
Gusts 114.0 mph

Today
High -- | Low -- °F
--% Chance of Precip.
Yesterday
High -- | Low -- °F
Precip. -- in
Pressure 30.06 in
Visibility 6.2 miles
Clouds
Windchill 15 °F
Dew Point 31 °F
Humidity 82%
Rainfall 0.00 in
Snow Depth Not available.
6:55 AM 4:52 PM
Waning Crescent, 1% visible
METAR LRAR 072200Z AUTO 14012KT 9999 R09////// R27/P2000 NCD 04/M02 Q1018
Pressure 30.06 in
Visibility 6.2 miles
Clouds
Windchill 15 °F
Dew Point 31 °F
Humidity 82%
Rainfall 0.00 in
Snow Depth Not available.
6:55 AM 4:52 PM
Waning Crescent, 1% visible
METAR LRAR 072200Z AUTO 14012KT 9999 R09////// R27/P2000 NCD 04/M02 Q1018

10-Day Weather Forecast

Almanac

Astronomy

Feb. 07, 2016 Rise Set
Actual Time
Civil Twilight
Nautical Twilight
Astronomical Twilight
Moon
Length of Visible Light
Length of Day
Tomorrow will be .
, % of the Moon is Illuminated

Today's Extremes

Country Highs Country Lows

Community

WunderPhotos

Upload Photos

1,891,304 photos uploaded!

WunderBlog® & News

Nearby

Air Quality

  Air Quality AQ Index Pollutant
Not available.

Snow Depth

Station Depth Elevation

Earthquake Activity

City Distance Mag. Time & Date
Minimum magnitude displayed is 2.5.

Coastal Water Temperatures

Place Temperature

Stations

Nearby Weather Stations

Station Location Temp. Windchill Dew Point Humidity Wind Precip. Elev Updated Type